Time;durP1;ratioP1;P1;durP2;ratioP2;P2;SDS_P1;SDS_P2;PMS_P1;PMS_P2;Temp;Humidity;BMP_temperature;BMP_pressure;BME280_temperature;BME280_humidity;BME280_pressure;Samples;Min_cycle;Max_cycle;Signal;HPM_P1;HPM_P2
2022/12/24 00:01:34;;;;;;;20.30;14.50;;;7.40;99.90;;;;;;4872291;29;20622;-86
2022/12/24 00:12:15;;;;;;;21.67;13.40;;;7.40;99.90;;;;;;4852798;29;20056;-86
2022/12/24 00:14:41;;;;;;;17.48;13.52;;;7.40;99.90;;;;;;4875672;29;20055;-86
2022/12/24 00:17:07;;;;;;;16.67;12.98;;;7.50;99.90;;;;;;4925218;29;20043;-86
2022/12/24 00:19:32;;;;;;;19.02;13.30;;;7.40;99.90;;;;;;4923956;29;20043;-86
2022/12/24 00:21:58;;;;;;;16.35;12.43;;;7.40;99.90;;;;;;4925699;29;20435;-86
2022/12/24 00:24:23;;;;;;;20.20;14.32;;;7.50;99.90;;;;;;4925561;29;20047;-86
2022/12/24 00:26:49;;;;;;;25.23;14.93;;;7.50;99.90;;;;;;4926706;29;20027;-86
2022/12/24 00:29:14;;;;;;;18.17;14.13;;;7.60;99.90;;;;;;4924548;29;20047;-86
2022/12/24 00:31:40;;;;;;;45.17;18.95;;;7.40;99.90;;;;;;4925587;29;20566;-86
2022/12/24 00:34:07;;;;;;;23.42;15.07;;;8.30;99.90;;;;;;4917406;29;20043;-85
2022/12/24 00:36:33;;;;;;;16.80;12.50;;;8.00;99.90;;;;;;4915877;29;20036;-86
2022/12/24 00:38:59;;;;;;;19.10;13.52;;;7.50;99.90;;;;;;4932505;29;20706;-86
2022/12/24 00:41:25;;;;;;;18.90;13.05;;;7.50;99.90;;;;;;4930794;29;20114;-86
2022/12/24 00:43:50;;;;;;;16.23;13.02;;;7.50;99.90;;;;;;4931616;29;20123;-86
2022/12/24 00:46:16;;;;;;;24.60;15.23;;;7.50;99.90;;;;;;4930840;29;20110;-86
2022/12/24 00:48:41;;;;;;;21.20;15.35;;;7.40;99.90;;;;;;4927760;29;20054;-86
2022/12/24 00:51:07;;;;;;;19.67;15.13;;;7.50;99.90;;;;;;4930468;29;20064;-86
2022/12/24 00:53:32;;;;;;;18.30;14.38;;;7.40;99.90;;;;;;4913379;29;20090;-87
2022/12/24 00:55:58;;;;;;;33.30;17.73;;;7.50;99.90;;;;;;4928366;29;20062;-86
2022/12/24 00:58:24;;;;;;;25.83;16.50;;;8.00;99.90;;;;;;4913043;29;20094;-86
2022/12/24 01:00:49;;;;;;;19.52;15.07;;;7.60;99.90;;;;;;4930928;29;20123;-87
2022/12/24 01:03:15;;;;;;;20.73;14.95;;;7.70;99.90;;;;;;4929103;29;20458;-87
2022/12/24 01:05:40;;;;;;;23.77;16.85;;;7.50;99.90;;;;;;4926543;29;20068;-86
2022/12/24 01:08:06;;;;;;;21.83;16.40;;;7.60;99.90;;;;;;4931999;29;20425;-86
2022/12/24 01:10:31;;;;;;;37.90;21.05;;;7.60;99.90;;;;;;4928624;29;20048;-86
2022/12/24 01:13:01;;;;;;;25.02;17.58;;;7.60;99.90;;;;;;4930111;29;20039;-86
2022/12/24 01:15:27;;;;;;;21.95;16.67;;;7.60;99.90;;;;;;4929365;29;20106;-86
2022/12/24 01:17:53;;;;;;;35.75;20.38;;;7.80;99.90;;;;;;4917297;29;20063;-87
2022/12/24 01:20:19;;;;;;;43.35;22.50;;;7.70;99.90;;;;;;4930471;29;20043;-86
2022/12/24 01:22:45;;;;;;;38.15;22.33;;;7.70;99.90;;;;;;4929982;29;20130;-86
2022/12/24 01:25:11;;;;;;;42.08;21.05;;;9.10;99.90;;;;;;4920100;29;20055;-86
2022/12/24 01:27:37;;;;;;;38.20;21.10;;;7.80;99.90;;;;;;4931692;29;20043;-86
2022/12/24 01:30:07;;;;;;;50.08;22.95;;;7.80;99.90;;;;;;4928231;29;20448;-86
2022/12/24 01:32:33;;;;;;;53.28;23.55;;;7.80;99.90;;;;;;4927352;29;20076;-86
2022/12/24 01:34:59;;;;;;;44.30;22.35;;;7.80;99.90;;;;;;4925078;29;20036;-86
2022/12/24 01:37:25;;;;;;;43.95;22.25;;;7.80;99.90;;;;;;4931662;29;20055;-86
2022/12/24 01:43:22;;;;;;;39.15;21.90;;;7.80;99.90;;;;;;4928774;29;20046;-86
2022/12/24 01:45:46;;;;;;;43.70;22.83;;;7.90;99.90;;;;;;4927911;29;20060;-86
2022/12/24 01:48:28;;;;;;;38.22;20.83;;;8.00;99.90;;;;;;4928387;29;20048;-86
2022/12/24 01:51:01;;;;;;;38.45;19.55;;;8.00;99.90;;;;;;4929937;29;20082;-87
2022/12/24 01:53:27;;;;;;;34.22;19.33;;;8.10;99.90;;;;;;4930042;29;20117;-86
2022/12/24 01:55:54;;;;;;;27.15;16.67;;;8.00;99.90;;;;;;4925018;29;20118;-86
2022/12/24 01:58:23;;;;;;;27.45;18.10;;;8.10;99.90;;;;;;4929255;29;20447;-86
2022/12/24 02:00:48;;;;;;;24.50;16.80;;;9.10;99.90;;;;;;4930375;29;20395;-86
2022/12/24 02:03:14;;;;;;;26.15;17.08;;;7.60;99.90;;;;;;4927604;29;20067;-86
2022/12/24 02:05:52;;;;;;;23.30;14.63;;;8.20;99.90;;;;;;4912294;29;20043;-87
2022/12/24 02:08:18;;;;;;;24.48;15.88;;;8.20;99.90;;;;;;4910503;29;20495;-86
2022/12/24 02:10:45;;;;;;;21.65;15.80;;;8.20;99.90;;;;;;4931232;29;20044;-87
2022/12/24 02:13:16;;;;;;;21.02;13.98;;;8.20;99.90;;;;;;4928699;29;20043;-86
2022/12/24 02:15:44;;;;;;;22.05;14.02;;;8.30;99.90;;;;;;4930912;29;20060;-86
2022/12/24 02:18:25;;;;;;;24.65;15.10;;;8.30;99.90;;;;;;4928727;29;20047;-86
2022/12/24 02:21:20;;;;;;;23.27;13.70;;;8.40;99.90;;;;;;4927545;29;20039;-86
2022/12/24 02:23:48;;;;;;;21.10;13.15;;;8.40;99.90;;;;;;4927447;29;20040;-86
2022/12/24 02:26:37;;;;;;;23.25;13.57;;;8.40;99.90;;;;;;4913114;29;20366;-86
2022/12/24 02:29:33;;;;;;;24.63;13.43;;;8.70;99.90;;;;;;4929344;29;20047;-87
2022/12/24 02:32:10;;;;;;;21.95;12.55;;;8.40;99.90;;;;;;4928216;29;20040;-86
2022/12/24 02:34:43;;;;;;;16.00;10.63;;;8.70;99.90;;;;;;4923808;29;20031;-86
2022/12/24 02:37:22;;;;;;;15.15;9.68;;;8.40;99.90;;;;;;4928678;29;20062;-86
2022/12/24 02:39:59;;;;;;;18.73;9.55;;;8.50;99.90;;;;;;4926444;29;20040;-85
2022/12/24 02:42:36;;;;;;;19.33;9.80;;;8.50;99.90;;;;;;4929232;29;20130;-86
2022/12/24 02:45:08;;;;;;;15.32;9.02;;;8.50;99.90;;;;;;4927436;29;20122;-86
2022/12/24 02:47:35;;;;;;;18.15;8.00;;;8.10;99.90;;;;;;4929204;29;20065;-86
2022/12/24 02:50:02;;;;;;;18.80;7.90;;;8.50;99.90;;;;;;4929650;29;20043;-86
2022/12/24 02:52:40;;;;;;;25.27;8.43;;;8.60;99.90;;;;;;4927236;29;20083;-87
2022/12/24 02:55:21;;;;;;;34.42;8.18;;;8.60;99.90;;;;;;4912133;29;20039;-85
2022/12/24 02:58:05;;;;;;;34.15;7.00;;;8.50;99.90;;;;;;4926402;29;20048;-87
2022/12/24 03:00:52;;;;;;;25.73;6.88;;;8.60;99.90;;;;;;4927595;29;20144;-87
2022/12/24 03:03:53;;;;;;;35.95;7.53;;;8.60;99.90;;;;;;4925884;29;20051;-86
2022/12/24 03:06:43;;;;;;;27.00;5.68;;;8.60;99.90;;;;;;4926026;29;20585;-86
2022/12/24 03:09:23;;;;;;;31.20;5.80;;;9.20;99.90;;;;;;4890870;29;20060;-86
2022/12/24 03:11:57;;;;;;;33.55;5.53;;;8.90;99.90;;;;;;4911303;29;20058;-85
2022/12/24 03:14:25;;;;;;;34.38;6.18;;;8.40;99.90;;;;;;4924942;29;20766;-87
2022/12/24 03:16:50;;;;;;;41.60;6.85;;;9.20;99.90;;;;;;4929117;29;20047;-86
2022/12/24 03:19:16;;;;;;;36.40;4.63;;;8.50;99.90;;;;;;4910703;29;20044;-86
2022/12/24 03:21:42;;;;;;;35.97;6.28;;;8.50;99.90;;;;;;4928670;29;20063;-86
2022/12/24 03:24:09;;;;;;;29.58;5.20;;;8.50;99.90;;;;;;4926620;29;20044;-86
2022/12/24 03:26:37;;;;;;;32.40;6.32;;;8.50;99.90;;;;;;4927908;29;20054;-87
2022/12/24 03:29:07;;;;;;;35.03;4.80;;;8.50;99.90;;;;;;4945097;29;20446;-86
2022/12/24 03:31:44;;;;;;;32.10;4.70;;;8.50;99.90;;;;;;4942130;28;20063;-87
2022/12/24 03:34:10;;;;;;;33.22;3.78;;;8.50;99.90;;;;;;4925975;29;20039;-87
2022/12/24 03:36:36;;;;;;;36.47;5.40;;;8.50;99.90;;;;;;4944896;29;20073;-86
2022/12/24 03:39:05;;;;;;;40.47;5.53;;;8.50;99.90;;;;;;4928567;29;20443;-86
2022/12/24 03:41:31;;;;;;;33.60;5.10;;;8.50;99.90;;;;;;4927827;29;20797;-86
2022/12/24 03:43:57;;;;;;;39.63;5.05;;;8.50;99.90;;;;;;4927736;29;20119;-86
2022/12/24 03:46:22;;;;;;;41.60;5.28;;;8.80;99.90;;;;;;4928354;29;20042;-86
2022/12/24 03:48:48;;;;;;;34.92;5.88;;;9.00;99.90;;;;;;4928774;29;20075;-86
2022/12/24 03:51:18;;;;;;;42.00;6.50;;;8.50;99.90;;;;;;4925496;29;20143;-85
2022/12/24 03:53:44;;;;;;;36.05;5.00;;;8.60;99.90;;;;;;4939804;29;20070;-85
2022/12/24 03:56:09;;;;;;;36.45;5.40;;;8.50;99.90;;;;;;4927540;29;20507;-86
2022/12/24 03:58:35;;;;;;;38.63;5.70;;;8.60;99.90;;;;;;4929751;29;20430;-86
2022/12/24 04:01:00;;;;;;;33.90;5.85;;;8.60;99.90;;;;;;4925773;29;20070;-85
2022/12/24 04:03:26;;;;;;;26.80;4.75;;;8.70;99.90;;;;;;4928268;29;20131;-86
2022/12/24 04:06:03;;;;;;;34.22;5.28;;;9.20;99.90;;;;;;4923166;29;20451;-87
2022/12/24 04:08:29;;;;;;;24.50;5.43;;;8.60;99.90;;;;;;4932012;29;20043;-86
2022/12/24 04:10:54;;;;;;;39.25;5.15;;;8.70;99.90;;;;;;4923893;29;20098;-86
2022/12/24 04:13:20;;;;;;;36.20;5.63;;;8.50;99.90;;;;;;4929616;29;20032;-86
2022/12/24 04:15:54;;;;;;;31.27;4.90;;;8.50;99.90;;;;;;4929243;29;20567;-86
2022/12/24 04:18:20;;;;;;;31.88;5.68;;;8.30;99.90;;;;;;4913468;29;20047;-86
2022/12/24 04:20:47;;;;;;;35.45;4.43;;;8.40;99.90;;;;;;4915343;29;20051;-85
2022/12/24 04:23:12;;;;;;;31.35;5.43;;;8.60;99.90;;;;;;4927680;29;20384;-86
2022/12/24 04:25:38;;;;;;;44.03;7.03;;;8.80;99.90;;;;;;4926918;29;20044;-86
2022/12/24 04:28:03;;;;;;;31.33;5.32;;;8.90;99.90;;;;;;4927168;29;20068;-87
2022/12/24 04:30:29;;;;;;;49.03;8.02;;;8.40;99.90;;;;;;4908777;29;20039;-86
2022/12/24 04:32:54;;;;;;;42.28;6.25;;;8.40;99.90;;;;;;4908676;29;20398;-86
2022/12/24 04:35:20;;;;;;;35.47;5.85;;;8.40;99.90;;;;;;4927453;29;20048;-86
2022/12/24 04:37:45;;;;;;;30.15;4.68;;;7.90;99.90;;;;;;4927206;29;20075;-86
2022/12/24 04:40:11;;;;;;;36.15;6.00;;;8.40;99.90;;;;;;4913566;29;20051;-86
2022/12/24 04:42:37;;;;;;;40.78;5.82;;;8.40;99.90;;;;;;4924375;29;20044;-86
2022/12/24 04:45:02;;;;;;;49.70;6.55;;;8.40;99.90;;;;;;4928238;29;20035;-86
2022/12/24 04:47:28;;;;;;;39.83;5.90;;;8.40;99.90;;;;;;4929565;29;20040;-85
2022/12/24 04:49:54;;;;;;;40.65;7.05;;;9.00;99.90;;;;;;4930619;29;20047;-87
2022/12/24 04:52:19;;;;;;;38.28;6.15;;;8.60;99.90;;;;;;4927170;29;20046;-86
2022/12/24 04:54:45;;;;;;;41.97;7.47;;;8.30;99.90;;;;;;4926020;29;20036;-86
2022/12/24 04:57:11;;;;;;;44.58;6.18;;;8.40;99.90;;;;;;4926309;29;20043;-86
2022/12/24 04:59:36;;;;;;;44.75;7.00;;;8.20;99.90;;;;;;4929076;29;20130;-86
2022/12/24 05:02:02;;;;;;;45.00;7.13;;;8.20;99.90;;;;;;4926478;29;20039;-86
2022/12/24 05:04:27;;;;;;;48.45;7.25;;;8.80;99.90;;;;;;4926770;29;20134;-86
2022/12/24 05:06:53;;;;;;;48.53;7.13;;;8.30;99.90;;;;;;4927510;29;20052;-86
2022/12/24 05:09:18;;;;;;;48.63;6.22;;;8.20;99.90;;;;;;4928046;29;20040;-87
2022/12/24 05:11:44;;;;;;;43.78;6.75;;;8.20;99.90;;;;;;4916081;29;20036;-87
2022/12/24 05:14:10;;;;;;;47.60;7.15;;;8.20;99.90;;;;;;4924655;29;20063;-87
2022/12/24 05:16:37;;;;;;;48.88;7.72;;;8.20;99.90;;;;;;4924944;29;20087;-86
2022/12/24 05:19:03;;;;;;;40.55;5.70;;;8.20;99.90;;;;;;4919255;29;20052;-87
2022/12/24 05:21:28;;;;;;;49.70;7.88;;;8.20;99.90;;;;;;4929312;29;20044;-87
2022/12/24 05:26:40;;;;;;;50.78;7.75;;;8.80;99.90;;;;;;4947441;28;20463;-86
2022/12/24 05:29:06;;;;;;;33.65;6.40;;;8.30;99.90;;;;;;4916762;29;20028;-85
2022/12/24 05:31:33;;;;;;;46.97;6.82;;;8.80;99.90;;;;;;4925993;29;20102;-86
2022/12/24 05:34:02;;;;;;;52.42;6.60;;;8.40;99.90;;;;;;4929544;29;20491;-86
2022/12/24 05:36:28;;;;;;;46.70;6.05;;;8.40;99.90;;;;;;4930535;29;20046;-86
2022/12/24 05:38:53;;;;;;;42.38;6.10;;;8.40;99.90;;;;;;4913419;29;20047;-86
2022/12/24 05:41:19;;;;;;;41.40;7.15;;;8.60;99.90;;;;;;4931346;29;20036;-86
2022/12/24 05:43:45;;;;;;;41.35;6.90;;;8.40;99.90;;;;;;4914742;29;20502;-86
2022/12/24 05:46:14;;;;;;;49.33;7.38;;;8.40;99.90;;;;;;4914481;29;20039;-86
2022/12/24 05:48:40;;;;;;;45.30;8.35;;;8.40;99.90;;;;;;4928936;29;20043;-85
2022/12/24 05:51:08;;;;;;;52.15;8.30;;;8.50;99.90;;;;;;4928401;29;20091;-86
2022/12/24 05:53:34;;;;;;;39.67;6.65;;;8.50;99.90;;;;;;4929464;29;20051;-86
2022/12/24 05:56:11;;;;;;;44.92;7.47;;;8.50;99.90;;;;;;4926678;29;20446;-85
2022/12/24 05:58:38;;;;;;;47.45;6.68;;;8.50;99.90;;;;;;4932022;29;20055;-86
2022/12/24 06:01:04;;;;;;;44.50;6.97;;;8.50;99.90;;;;;;4928119;29;20422;-86
2022/12/24 06:03:31;;;;;;;40.40;7.47;;;8.50;99.90;;;;;;4928972;29;20051;-86
2022/12/24 06:06:09;;;;;;;47.80;7.63;;;8.90;99.90;;;;;;4917231;29;20146;-86
2022/12/24 06:08:36;;;;;;;51.55;7.68;;;8.50;99.90;;;;;;4930249;29;20078;-86
2022/12/24 06:11:04;;;;;;;45.25;7.85;;;9.00;99.90;;;;;;4929395;29;20406;-86
2022/12/24 06:13:30;;;;;;;44.13;7.72;;;9.20;99.90;;;;;;4913651;29;20473;-86
2022/12/24 06:15:57;;;;;;;40.63;7.30;;;8.50;99.90;;;;;;4913369;29;20131;-86
2022/12/24 06:18:23;;;;;;;47.55;7.13;;;8.50;99.90;;;;;;4929927;29;20435;-86
2022/12/24 06:20:53;;;;;;;48.72;7.65;;;8.30;99.90;;;;;;4929957;29;20075;-86
2022/12/24 06:23:18;;;;;;;51.88;7.43;;;9.10;99.90;;;;;;4916381;29;20039;-86
2022/12/24 06:25:44;;;;;;;46.97;7.78;;;8.60;99.90;;;;;;4927172;29;20047;-86
2022/12/24 06:28:10;;;;;;;52.72;8.35;;;8.60;99.90;;;;;;4932045;29;20043;-87
2022/12/24 06:30:35;;;;;;;49.65;7.30;;;8.60;99.90;;;;;;4926964;29;20518;-86
2022/12/24 06:33:01;;;;;;;46.83;6.93;;;8.60;99.90;;;;;;4928244;29;20054;-86
2022/12/24 06:35:27;;;;;;;53.28;7.20;;;8.80;99.90;;;;;;4928580;29;20114;-86
2022/12/24 06:37:52;;;;;;;51.75;8.40;;;8.60;99.90;;;;;;4926916;29;20499;-86
2022/12/24 06:40:18;;;;;;;44.95;7.60;;;8.60;99.90;;;;;;4945241;28;20041;-87
2022/12/24 06:42:43;;;;;;;42.47;7.45;;;8.60;99.90;;;;;;4921287;29;20051;-85
2022/12/24 06:45:09;;;;;;;40.45;7.07;;;8.70;99.90;;;;;;4929464;29;20450;-85
2022/12/24 06:47:35;;;;;;;42.83;7.38;;;8.60;99.90;;;;;;4928725;29;20055;-86
2022/12/24 06:50:01;;;;;;;50.50;8.02;;;8.80;99.90;;;;;;4925205;29;20031;-86
2022/12/24 06:52:26;;;;;;;45.85;8.68;;;8.70;99.90;;;;;;4924830;29;20474;-86
2022/12/24 06:54:52;;;;;;;51.70;8.02;;;8.80;99.90;;;;;;4922940;29;20097;-85
2022/12/24 06:57:17;;;;;;;39.80;6.43;;;8.70;99.90;;;;;;4911405;29;20079;-86
2022/12/24 06:59:43;;;;;;;40.03;6.88;;;8.80;99.90;;;;;;4926042;29;20506;-86
2022/12/24 07:02:09;;;;;;;44.63;5.97;;;9.40;99.90;;;;;;4927460;29;20047;-86
2022/12/24 07:04:34;;;;;;;36.72;6.45;;;8.70;99.90;;;;;;4907783;29;20055;-86
2022/12/24 07:07:00;;;;;;;45.05;6.85;;;9.00;99.90;;;;;;4925312;29;20086;-86
2022/12/24 07:09:26;;;;;;;44.22;6.38;;;8.60;99.90;;;;;;4907058;29;20047;-86
2022/12/24 07:11:51;;;;;;;44.75;8.13;;;8.80;99.90;;;;;;4927897;29;20762;-86
2022/12/24 07:14:17;;;;;;;37.10;6.32;;;8.70;99.90;;;;;;4922332;29;20122;-84
2022/12/24 07:16:42;;;;;;;41.80;6.25;;;8.70;99.90;;;;;;4920765;29;20087;-84
2022/12/24 07:19:08;;;;;;;50.38;7.10;;;8.70;99.90;;;;;;4925155;29;20054;-84
2022/12/24 07:21:36;;;;;;;43.13;7.07;;;8.70;99.90;;;;;;4937093;28;20043;-84
2022/12/24 07:24:02;;;;;;;46.70;6.63;;;8.70;99.90;;;;;;4923680;29;20035;-85
2022/12/24 07:26:28;;;;;;;43.33;6.78;;;8.70;99.90;;;;;;4904877;29;20031;-84
2022/12/24 07:28:53;;;;;;;53.40;7.35;;;8.80;99.90;;;;;;4920687;29;20447;-85
2022/12/24 07:31:19;;;;;;;55.85;7.82;;;8.80;99.90;;;;;;4907109;29;20035;-86
2022/12/24 07:33:44;;;;;;;43.70;6.28;;;9.50;99.90;;;;;;4923932;29;20483;-85
2022/12/24 07:36:19;;;;;;;39.78;6.18;;;8.80;99.90;;;;;;4921952;29;20083;-86
2022/12/24 07:38:45;;;;;;;43.78;6.90;;;8.80;99.90;;;;;;4921769;29;20167;-85
2022/12/24 07:41:11;;;;;;;42.58;5.10;;;9.20;99.90;;;;;;4941131;28;20151;-86
2022/12/24 07:43:36;;;;;;;42.28;7.25;;;9.20;99.90;;;;;;4904636;29;20044;-86
2022/12/24 07:46:02;;;;;;;45.65;8.05;;;8.80;99.90;;;;;;4922108;29;20127;-86
2022/12/24 07:48:29;;;;;;;51.28;7.15;;;8.90;99.90;;;;;;4912241;29;20509;-85
2022/12/24 07:50:56;;;;;;;40.72;6.78;;;9.20;99.90;;;;;;4922140;29;20043;-87
2022/12/24 07:53:22;;;;;;;52.08;7.00;;;9.00;99.90;;;;;;4921399;29;20128;-85
2022/12/24 07:55:47;;;;;;;40.53;7.38;;;9.00;99.90;;;;;;4938993;28;20126;-84
2022/12/24 07:58:13;;;;;;;44.28;6.50;;;8.90;99.90;;;;;;4917444;29;20112;-83
2022/12/24 08:00:38;;;;;;;38.42;6.15;;;8.90;99.90;;;;;;4921232;29;20514;-83
2022/12/24 08:03:04;;;;;;;39.40;6.00;;;8.90;99.90;;;;;;4923112;29;20040;-83
2022/12/24 08:06:20;;;;;;;45.90;6.50;;;9.00;99.90;;;;;;4920309;29;20491;-85
2022/12/24 08:10:00;;;;;;;40.08;5.70;;;9.00;99.90;;;;;;4922787;29;20174;-85
2022/12/24 08:12:44;;;;;;;42.08;6.28;;;8.90;99.90;;;;;;4889266;29;20075;-84
2022/12/24 08:15:11;;;;;;;42.72;6.35;;;8.90;99.90;;;;;;4906560;29;20066;-84
2022/12/24 08:17:36;;;;;;;35.67;5.28;;;8.90;99.90;;;;;;4908101;29;20406;-83
2022/12/24 08:20:16;;;;;;;37.72;5.82;;;8.90;99.90;;;;;;4905734;29;20043;-86
2022/12/24 08:23:04;;;;;;;42.22;7.82;;;9.00;99.90;;;;;;4934043;29;20104;-84
2022/12/24 08:25:29;;;;;;;48.80;6.55;;;9.40;99.90;;;;;;4940882;28;20039;-84
2022/12/24 08:28:14;;;;;;;43.72;6.68;;;9.00;99.90;;;;;;4911368;29;20040;-84
2022/12/24 08:30:39;;;;;;;44.08;8.38;;;9.50;99.90;;;;;;4919494;29;20042;-84
2022/12/24 08:33:05;;;;;;;37.88;7.75;;;9.20;99.90;;;;;;4919466;29;20043;-83
2022/12/24 08:35:31;;;;;;;42.67;7.72;;;9.10;99.90;;;;;;4920111;29;20035;-83
2022/12/24 08:37:56;;;;;;;48.55;7.82;;;9.10;99.90;;;;;;4921938;29;20047;-82
2022/12/24 08:40:22;;;;;;;40.28;7.68;;;9.10;99.90;;;;;;4937667;28;20047;-84
2022/12/24 08:42:48;;;;;;;54.08;8.80;;;9.00;99.90;;;;;;4933451;28;20040;-83
2022/12/24 08:45:14;;;;;;;39.22;6.00;;;9.10;99.90;;;;;;4919379;29;20043;-84
2022/12/24 08:47:40;;;;;;;41.30;6.78;;;9.10;99.90;;;;;;4936786;28;20058;-84
2022/12/24 08:50:07;;;;;;;30.08;5.90;;;9.30;99.90;;;;;;4920350;29;20483;-81
2022/12/24 08:52:33;;;;;;;44.80;7.75;;;9.10;99.90;;;;;;4922804;29;20039;-84
2022/12/24 08:54:58;;;;;;;48.40;8.07;;;9.10;99.90;;;;;;4924919;29;20051;-85
2022/12/24 08:57:24;;;;;;;39.63;6.20;;;9.20;99.90;;;;;;4912215;29;20387;-84
2022/12/24 08:59:50;;;;;;;45.63;7.35;;;9.20;99.90;;;;;;4927895;29;20083;-84
2022/12/24 09:02:36;;;;;;;41.17;7.25;;;9.20;99.90;;;;;;4910341;29;20044;-85
2022/12/24 09:05:03;;;;;;;32.83;6.65;;;9.20;99.90;;;;;;4909815;29;20072;-85
2022/12/24 09:07:29;;;;;;;37.03;7.13;;;9.20;99.90;;;;;;4930622;29;20063;-85
2022/12/24 09:09:57;;;;;;;39.35;6.78;;;9.20;99.90;;;;;;4929171;29;20090;-84
2022/12/24 09:12:23;;;;;;;39.83;7.55;;;9.20;99.90;;;;;;4908600;29;20044;-84
2022/12/24 09:14:54;;;;;;;39.92;7.40;;;9.30;99.90;;;;;;4927982;29;20622;-84
2022/12/24 09:17:29;;;;;;;42.75;7.28;;;9.30;99.90;;;;;;4928473;29;20106;-84
2022/12/24 09:19:55;;;;;;;44.53;8.00;;;9.30;99.90;;;;;;4927757;29;20035;-83
2022/12/24 09:22:22;;;;;;;42.03;7.93;;;9.30;99.90;;;;;;4922614;29;20046;-84
2022/12/24 09:24:48;;;;;;;45.33;7.30;;;9.40;99.90;;;;;;4911014;29;20048;-84
2022/12/24 09:27:13;;;;;;;39.75;7.43;;;9.40;99.90;;;;;;4911591;29;20062;-84
2022/12/24 09:29:39;;;;;;;46.03;7.55;;;9.40;99.90;;;;;;4912022;29;20055;-83
2022/12/24 09:32:06;;;;;;;43.35;7.82;;;9.40;99.90;;;;;;4913079;29;20414;-84
2022/12/24 09:34:31;;;;;;;41.80;8.18;;;9.50;99.90;;;;;;4927620;29;20043;-84
2022/12/24 09:36:58;;;;;;;41.72;7.38;;;9.50;99.90;;;;;;4924057;29;20040;-83
2022/12/24 09:39:24;;;;;;;45.58;6.75;;;9.50;99.90;;;;;;4924238;29;20043;-83
2022/12/24 09:42:24;;;;;;;54.00;10.30;;;9.50;99.90;;;;;;4926156;29;20454;-83
2022/12/24 09:44:57;;;;;;;45.88;7.78;;;9.50;99.90;;;;;;4943917;29;20075;-83
2022/12/24 09:47:37;;;;;;;36.00;5.68;;;9.40;99.90;;;;;;4926617;29;20042;-83
2022/12/24 09:50:17;;;;;;;40.00;6.68;;;9.40;99.90;;;;;;4943807;28;20483;-83
2022/12/24 09:52:45;;;;;;;38.10;6.60;;;9.40;99.90;;;;;;4924002;29;20051;-84
2022/12/24 09:55:18;;;;;;;37.30;6.25;;;9.30;99.90;;;;;;4925540;29;20051;-83
2022/12/24 09:57:46;;;;;;;30.92;5.78;;;9.30;99.90;;;;;;4919489;29;20525;-84
2022/12/24 10:00:20;;;;;;;40.53;6.25;;;9.30;99.90;;;;;;4905373;29;20062;-84
2022/12/24 10:02:48;;;;;;;35.17;6.47;;;9.30;99.90;;;;;;4928065;29;20046;-86
2022/12/24 10:05:17;;;;;;;27.95;4.68;;;9.40;99.90;;;;;;4913299;29;20122;-84
2022/12/24 10:08:10;;;;;;;28.33;4.50;;;9.30;99.90;;;;;;4924501;29;20043;-83
2022/12/24 10:10:51;;;;;;;28.30;5.45;;;9.40;99.90;;;;;;4924470;29;20802;-82
2022/12/24 10:13:43;;;;;;;34.13;5.68;;;9.40;99.90;;;;;;4910249;29;20396;-83
2022/12/24 10:16:29;;;;;;;34.33;5.45;;;9.40;99.90;;;;;;4917265;29;20044;-84
2022/12/24 10:19:32;;;;;;;26.10;4.25;;;9.40;99.90;;;;;;4892156;29;20114;-83
2022/12/24 10:22:30;;;;;;;29.55;5.18;;;9.50;99.90;;;;;;4866131;29;20083;-82
2022/12/24 10:25:15;;;;;;;35.88;7.15;;;9.50;99.90;;;;;;4908185;29;20028;-81
2022/12/24 10:27:41;;;;;;;37.35;6.10;;;9.50;99.90;;;;;;4910747;29;20051;-81
2022/12/24 10:30:21;;;;;;;38.45;5.15;;;9.60;99.90;;;;;;4922784;29;20495;-82
2022/12/24 10:32:48;;;;;;;39.60;5.72;;;9.60;99.90;;;;;;4911162;29;20039;-82
2022/12/24 10:35:14;;;;;;;35.92;6.47;;;9.60;99.90;;;;;;4926170;29;20032;-85
2022/12/24 10:37:44;;;;;;;32.85;5.55;;;9.60;99.90;;;;;;4910052;29;20051;-84
2022/12/24 10:40:44;;;;;;;39.30;5.93;;;9.70;99.90;;;;;;4942797;28;20031;-85
2022/12/24 10:43:19;;;;;;;31.73;6.65;;;9.60;99.90;;;;;;4913188;29;20447;-85
2022/12/24 10:45:52;;;;;;;40.28;6.13;;;10.20;99.90;;;;;;4909836;29;20415;-83
2022/12/24 10:48:27;;;;;;;38.70;5.28;;;9.70;99.90;;;;;;4909826;29;20046;-84
2022/12/24 10:51:01;;;;;;;35.83;6.38;;;9.70;99.90;;;;;;4915785;29;20450;-85
2022/12/24 10:53:48;;;;;;;43.55;6.28;;;9.70;99.90;;;;;;4910813;29;20044;-83
2022/12/24 10:56:17;;;;;;;30.77;5.75;;;9.70;99.90;;;;;;4909368;29;20059;-85
2022/12/24 10:58:53;;;;;;;35.13;5.60;;;9.70;99.90;;;;;;4912954;29;20957;-84
2022/12/24 11:01:39;;;;;;;37.75;5.38;;;9.80;99.90;;;;;;4926695;29;20054;-85
2022/12/24 11:04:04;;;;;;;;;;;9.70;99.90;;;;;;4924149;29;20082;-86
2022/12/24 11:06:30;;;;;;;39.80;5.65;;;9.70;99.90;;;;;;4928157;29;19922;-83
2022/12/24 11:09:18;;;;;;;32.28;5.80;;;9.70;99.90;;;;;;4928924;29;20137;-84
2022/12/24 11:11:44;;;;;;;45.00;7.20;;;9.70;99.90;;;;;;4927093;29;20044;-85
2022/12/24 11:14:15;;;;;;;42.80;5.85;;;9.70;99.90;;;;;;4927222;29;20043;-85
2022/12/24 11:16:52;;;;;;;51.78;8.80;;;9.70;99.90;;;;;;4911262;29;20043;-86
2022/12/24 11:19:29;;;;;;;36.65;6.40;;;10.30;99.90;;;;;;4927192;29;20098;-87
2022/12/24 11:22:02;;;;;;;41.35;7.75;;;9.80;99.90;;;;;;4931086;29;20047;-88
2022/12/24 11:24:32;;;;;;;35.72;6.38;;;9.70;99.90;;;;;;4929549;29;20046;-84
2022/12/24 11:27:24;;;;;;;42.40;7.13;;;9.80;99.90;;;;;;4930170;29;20465;-89
2022/12/24 11:33:48;;;;;;;40.38;6.10;;;9.80;99.90;;;;;;4928176;29;20098;-86
2022/12/24 11:36:19;;;;;;;36.03;6.75;;;9.80;99.90;;;;;;4910815;29;20043;-86
2022/12/24 11:38:53;;;;;;;40.17;6.00;;;9.80;99.90;;;;;;4917871;29;20106;-82
2022/12/24 11:41:18;;;;;;;43.30;7.47;;;9.80;99.90;;;;;;4928741;29;20048;-86
2022/12/24 11:44:03;;;;;;;36.50;5.53;;;9.90;99.90;;;;;;4912412;29;20126;-87
2022/12/24 11:46:50;;;;;;;39.55;6.60;;;9.80;99.90;;;;;;4912799;29;20058;-85
2022/12/24 11:49:22;;;;;;;31.20;6.72;;;9.80;99.90;;;;;;4930259;29;20122;-86
2022/12/24 11:52:10;;;;;;;36.05;6.45;;;9.80;99.90;;;;;;4924679;29;20040;-85
2022/12/24 11:54:59;;;;;;;33.35;6.18;;;9.70;99.90;;;;;;4915496;29;20036;-85
2022/12/24 11:57:31;;;;;;;27.80;5.72;;;9.80;99.90;;;;;;4929929;29;20102;-89
2022/12/24 11:59:57;;;;;;;34.35;6.18;;;9.80;99.90;;;;;;4928185;29;20043;-85
2022/12/24 12:02:32;;;;;;;34.33;5.85;;;9.90;99.90;;;;;;4928390;29;20040;-84
2022/12/24 12:05:20;;;;;;;32.40;5.90;;;9.80;99.90;;;;;;4925269;29;20044;-84
2022/12/24 12:07:51;;;;;;;30.30;5.47;;;9.90;99.90;;;;;;4931295;29;20043;-85
2022/12/24 12:10:47;;;;;;;34.65;5.35;;;10.40;99.90;;;;;;4932245;29;20538;-84
2022/12/24 12:13:17;;;;;;;27.15;5.45;;;9.90;99.90;;;;;;4889207;29;20064;-88
2022/12/24 12:16:59;;;;;;;35.97;5.28;;;10.20;99.90;;;;;;4926840;29;20128;-86
2022/12/24 12:19:31;;;;;;;29.58;5.22;;;9.90;99.90;;;;;;4879552;29;20071;-88
2022/12/24 12:22:02;;;;;;;31.02;5.00;;;9.80;99.90;;;;;;4883266;29;20135;-88
2022/12/24 12:24:50;;;;;;;27.77;4.95;;;9.80;99.90;;;;;;4909690;29;20091;-87
2022/12/24 12:27:38;;;;;;;28.63;6.30;;;9.80;99.90;;;;;;4926216;29;20542;-87
2022/12/24 12:30:14;;;;;;;25.05;4.43;;;9.80;99.90;;;;;;4921164;29;20047;-87
2022/12/24 12:32:56;;;;;;;25.33;4.90;;;9.80;99.90;;;;;;4914333;29;20107;-87
2022/12/24 12:35:38;;;;;;;24.17;3.30;;;9.80;99.90;;;;;;4909615;29;20093;-87
2022/12/24 12:38:08;;;;;;;27.95;4.28;;;9.80;99.90;;;;;;4930939;29;20658;-85
2022/12/24 12:41:30;;;;;;;20.15;4.05;;;9.80;99.90;;;;;;4926807;29;20139;-87
2022/12/24 12:44:48;;;;;;;32.30;4.40;;;9.80;99.90;;;;;;4893181;29;20053;-87
2022/12/24 12:51:03;;;;;;;23.40;4.90;;;9.90;99.90;;;;;;4926397;29;20398;-87
2022/12/24 12:54:19;;;;;;;29.15;5.82;;;9.80;99.90;;;;;;4905996;29;20396;-87
2022/12/24 12:57:45;;;;;;;27.33;5.40;;;9.90;99.90;;;;;;4919788;29;20470;-88
2022/12/24 13:00:26;;;;;;;32.17;4.68;;;9.80;99.90;;;;;;4921228;29;20053;-86
2022/12/24 13:03:32;;;;;;;32.42;5.15;;;9.80;99.90;;;;;;4912436;29;20438;-86
2022/12/24 13:06:35;;;;;;;27.27;4.75;;;9.80;99.90;;;;;;4933332;29;20513;-86
2022/12/24 13:09:55;;;;;;;25.67;5.30;;;9.90;99.90;;;;;;4931601;29;20078;-87
2022/12/24 13:24:48;;;;;;;22.63;4.10;;;9.90;99.90;;;;;;4954774;28;20055;-85
2022/12/24 13:27:33;;;;;;;25.00;5.25;;;9.90;99.90;;;;;;4932354;29;20158;-87
2022/12/24 13:30:31;;;;;;;26.05;5.72;;;9.90;99.90;;;;;;4938434;29;20031;-87
2022/12/24 13:33:31;;;;;;;27.17;4.40;;;9.90;99.90;;;;;;4928635;29;20043;-87
2022/12/24 13:37:07;;;;;;;25.60;4.22;;;10.00;99.90;;;;;;4937320;28;20095;-89
2022/12/24 13:40:11;;;;;;;20.27;3.88;;;9.80;99.90;;;;;;4873370;29;20059;-87
2022/12/24 13:43:09;;;;;;;25.42;4.45;;;10.00;99.90;;;;;;4929196;29;20103;-88
2022/12/24 13:45:38;;;;;;;28.70;4.50;;;9.90;99.90;;;;;;4930610;29;20106;-87
2022/12/24 13:48:09;;;;;;;28.38;4.50;;;9.90;99.90;;;;;;4932135;29;20043;-86